createdAt,value
2018-09-08T00:00:50.218Z,100248
2018-09-08T00:01:55.109Z,100269
2018-09-08T00:02:59.508Z,100275
2018-09-08T00:04:05.307Z,100269
2018-09-08T00:05:10.173Z,100263
2018-09-08T00:06:14.798Z,100263
2018-09-08T00:07:19.819Z,100260
2018-09-08T00:08:24.970Z,100260
2018-09-08T00:09:30.067Z,100266
2018-09-08T00:10:35.541Z,100257
2018-09-08T00:11:40.424Z,100263
2018-09-08T00:12:45.822Z,100246
2018-09-08T00:13:50.413Z,100248
2018-09-08T00:14:55.036Z,100248
2018-09-08T00:16:01.055Z,100248
2018-09-08T00:17:06.001Z,100243
2018-09-08T00:18:10.363Z,100251
2018-09-08T00:19:16.063Z,100254
2018-09-08T00:20:21.312Z,100260
2018-09-08T00:21:27.583Z,100248
2018-09-08T00:22:32.447Z,100257
2018-09-08T00:23:37.945Z,100257
2018-09-08T00:24:43.172Z,100257
2018-09-08T00:25:48.649Z,100260
2018-09-08T00:26:54.079Z,100266
2018-09-08T00:27:59.421Z,100266
2018-09-08T00:29:04.002Z,100257
2018-09-08T00:30:08.898Z,100260
2018-09-08T00:31:14.351Z,100275
2018-09-08T00:32:19.778Z,100260
2018-09-08T00:33:25.793Z,100257
2018-09-08T00:34:31.396Z,100248
2018-09-08T00:35:35.972Z,100248
2018-09-08T00:36:41.577Z,100246
2018-09-08T00:37:46.495Z,100246
2018-09-08T00:38:51.928Z,100246
2018-09-08T00:39:57.204Z,100254
2018-09-08T00:41:02.344Z,100248
2018-09-08T00:42:06.651Z,100260
2018-09-08T00:43:11.776Z,100251
2018-09-08T00:44:17.307Z,100257
2018-09-08T00:45:22.204Z,100266
2018-09-08T00:46:42.401Z,100257
2018-09-08T00:47:47.829Z,100263
2018-09-08T00:48:52.723Z,100269
2018-09-08T00:49:57.873Z,100266
2018-09-08T00:51:02.741Z,100272
2018-09-08T00:52:08.291Z,100263
2018-09-08T00:53:13.806Z,100269
2018-09-08T00:54:18.680Z,100263
2018-09-08T00:55:24.080Z,100269
2018-09-08T00:56:29.508Z,100266
2018-09-08T00:57:34.845Z,100278
2018-09-08T00:58:39.741Z,100280
2018-09-08T00:59:44.595Z,100272
2018-09-08T01:00:50.277Z,100283
2018-09-08T01:01:55.504Z,100272
2018-09-08T01:03:00.980Z,100288
2018-09-08T01:04:05.900Z,100283
2018-09-08T01:05:10.512Z,100275
2018-09-08T01:06:15.944Z,100278
2018-09-08T01:07:21.074Z,100269
2018-09-08T01:08:26.213Z,100280
2018-09-08T01:09:32.287Z,100280
2018-09-08T01:10:37.772Z,100275
2018-09-08T01:11:43.283Z,100278
2018-09-08T01:12:49.121Z,100269
2018-09-08T01:13:54.297Z,100275
2018-09-08T01:14:59.506Z,100263
2018-09-08T01:16:05.063Z,100269
2018-09-08T01:17:10.007Z,100269
2018-09-08T01:18:15.241Z,100272
2018-09-08T01:19:21.155Z,100272
2018-09-08T01:20:26.637Z,100266
2018-09-08T01:21:32.343Z,100275
2018-09-08T01:22:37.848Z,100269
2018-09-08T01:23:43.335Z,100263
2018-09-08T01:24:49.035Z,100266
2018-09-08T01:25:54.478Z,100272
2018-09-08T01:26:59.630Z,100278
2018-09-08T01:28:04.766Z,100278
2018-09-08T01:29:10.034Z,100278
2018-09-08T01:30:15.175Z,100275
2018-09-08T01:31:20.898Z,100269
2018-09-08T01:32:26.054Z,100272
2018-09-08T01:33:31.597Z,100275
2018-09-08T01:34:37.047Z,100286
2018-09-08T01:35:42.527Z,100278
2018-09-08T01:36:48.030Z,100269
2018-09-08T01:37:53.193Z,100272
2018-09-08T01:38:58.162Z,100278
2018-09-08T01:40:03.705Z,100278
2018-09-08T01:41:09.157Z,100272
2018-09-08T01:42:14.327Z,100286
2018-09-08T01:43:19.974Z,100283
2018-09-08T01:44:24.915Z,100269
2018-09-08T01:45:30.481Z,100280
2018-09-08T01:46:35.640Z,100286
2018-09-08T01:47:40.514Z,100286
2018-09-08T01:48:46.092Z,100280
2018-09-08T01:49:51.237Z,100272
2018-09-08T01:50:56.390Z,100291
2018-09-08T01:52:01.518Z,100286
2018-09-08T01:53:07.009Z,100283
2018-09-08T01:54:12.456Z,100286
2018-09-08T01:55:17.790Z,100286
2018-09-08T01:56:22.942Z,100283
2018-09-08T01:57:28.905Z,100283
2018-09-08T01:58:34.162Z,100286
2018-09-08T01:59:39.029Z,100288
2018-09-08T02:00:44.430Z,100288
2018-09-08T02:01:49.624Z,100286
2018-09-08T02:02:54.777Z,100291
2018-09-08T02:04:00.632Z,100297
2018-09-08T02:05:05.890Z,100278
2018-09-08T02:06:11.356Z,100291
2018-09-08T02:07:16.520Z,100291
2018-09-08T02:08:21.664Z,100275
2018-09-08T02:09:27.567Z,100288
2018-09-08T02:10:32.746Z,100286
2018-09-08T02:11:38.175Z,100288
2018-09-08T02:12:43.288Z,100280
2018-09-08T02:13:48.502Z,100288
2018-09-08T02:14:53.961Z,100286
2018-09-08T02:15:59.348Z,100283
2018-09-08T02:17:04.635Z,100280
2018-09-08T02:18:09.512Z,100286
2018-09-08T02:19:14.380Z,100280
2018-09-08T02:20:19.622Z,100283
2018-09-08T02:21:24.778Z,100286
2018-09-08T02:22:45.293Z,100286
2018-09-08T02:23:50.285Z,100286
2018-09-08T02:24:55.527Z,100297
2018-09-08T02:26:00.385Z,100283
2018-09-08T02:27:04.724Z,100280
2018-09-08T02:28:09.579Z,100291
2018-09-08T02:29:14.725Z,100291
2018-09-08T02:30:20.252Z,100283
2018-09-08T02:31:25.931Z,100286
2018-09-08T02:32:30.830Z,100288
2018-09-08T02:33:36.662Z,100286
2018-09-08T02:34:42.092Z,100294
2018-09-08T02:35:47.267Z,100288
2018-09-08T02:36:52.679Z,100294
2018-09-08T02:37:58.144Z,100300
2018-09-08T02:39:03.323Z,100294
2018-09-08T02:40:09.033Z,100288
2018-09-08T02:41:13.949Z,100286
2018-09-08T02:42:19.478Z,100280
2018-09-08T02:43:24.721Z,100286
2018-09-08T02:44:29.863Z,100286
2018-09-08T02:45:34.974Z,100297
2018-09-08T02:46:40.425Z,100283
2018-09-08T02:47:45.856Z,100286
2018-09-08T02:48:51.407Z,100294
2018-09-08T02:49:56.276Z,100291
2018-09-08T02:51:01.655Z,100288
2018-09-08T02:52:07.129Z,100286
2018-09-08T02:53:12.643Z,100283
2018-09-08T02:54:17.498Z,100286
2018-09-08T02:55:22.917Z,100283
2018-09-08T02:56:28.408Z,100283
2018-09-08T02:57:34.231Z,100286
2018-09-08T02:58:39.424Z,100280
2018-09-08T02:59:44.299Z,100278
2018-09-08T03:00:49.978Z,100291
2018-09-08T03:01:54.903Z,100286
2018-09-08T03:02:59.804Z,100303
2018-09-08T03:04:04.920Z,100303
2018-09-08T03:05:10.382Z,100294
2018-09-08T03:06:15.832Z,100294
2018-09-08T03:07:21.386Z,100291
2018-09-08T03:08:26.539Z,100294
2018-09-08T03:09:32.318Z,100288
2018-09-08T03:10:37.745Z,100297
2018-09-08T03:11:43.196Z,100297
2018-09-08T03:12:48.479Z,100294
2018-09-08T03:13:53.914Z,100300
2018-09-08T03:14:59.377Z,100300
2018-09-08T03:16:05.295Z,100309
2018-09-08T03:17:10.497Z,100300
2018-09-08T03:18:15.926Z,100306
2018-09-08T03:19:21.466Z,100294
2018-09-08T03:20:25.809Z,100306
2018-09-08T03:21:31.700Z,100303
2018-09-08T03:22:37.215Z,100291
2018-09-08T03:23:42.665Z,100297
2018-09-08T03:24:47.917Z,100297
2018-09-08T03:25:53.187Z,100286
2018-09-08T03:26:58.050Z,100300
2018-09-08T03:28:03.548Z,100291
2018-09-08T03:29:08.999Z,100291
2018-09-08T03:30:14.152Z,100286
2018-09-08T03:31:19.134Z,100286
2018-09-08T03:32:23.999Z,100297
2018-09-08T03:33:29.717Z,100294
2018-09-08T03:34:34.322Z,100300
2018-09-08T03:35:39.512Z,100300
2018-09-08T03:36:44.678Z,100300
2018-09-08T03:37:49.921Z,100294
2018-09-08T03:38:55.477Z,100303
2018-09-08T03:40:01.321Z,100297
2018-09-08T03:41:05.423Z,100303
2018-09-08T03:42:10.629Z,100294
2018-09-08T03:43:16.462Z,100297
2018-09-08T03:44:21.906Z,100300
2018-09-08T03:45:27.482Z,100306
2018-09-08T03:46:32.917Z,100311
2018-09-08T03:47:38.343Z,100308
2018-09-08T03:48:44.169Z,100314
2018-09-08T03:49:49.310Z,100303
2018-09-08T03:50:54.800Z,100314
2018-09-08T03:52:00.341Z,100317
2018-09-08T03:53:05.803Z,100320
2018-09-08T03:54:11.038Z,100314
2018-09-08T03:55:16.727Z,100320
2018-09-08T03:56:22.239Z,100311
2018-09-08T03:57:28.163Z,100308
2018-09-08T03:58:33.320Z,100326
2018-09-08T03:59:38.756Z,100323
2018-09-08T04:00:44.570Z,100323
2018-09-08T04:01:49.747Z,100320
2018-09-08T04:02:54.637Z,100323
2018-09-08T04:04:00.239Z,100323
2018-09-08T04:05:04.863Z,100317
2018-09-08T04:06:10.010Z,100332
2018-09-08T04:07:15.602Z,100317
2018-09-08T04:08:20.798Z,100320
2018-09-08T04:09:41.121Z,100320
2018-09-08T04:10:46.409Z,100323
2018-09-08T04:11:51.590Z,100317
2018-09-08T04:12:57.131Z,100332
2018-09-08T04:14:02.039Z,100337
2018-09-08T04:15:07.227Z,100323
2018-09-08T04:16:12.737Z,100326
2018-09-08T04:17:17.696Z,100326
2018-09-08T04:18:23.196Z,100332
2018-09-08T04:19:29.234Z,100337
2018-09-08T04:20:34.453Z,100326
2018-09-08T04:21:40.632Z,100332
2018-09-08T04:22:46.181Z,100326
2018-09-08T04:23:51.382Z,100332
2018-09-08T04:24:56.841Z,100326
2018-09-08T04:26:02.092Z,100326
2018-09-08T04:27:06.115Z,100339
2018-09-08T04:28:11.932Z,100339
2018-09-08T04:29:17.415Z,100337
2018-09-08T04:30:22.928Z,100339
2018-09-08T04:31:28.368Z,100335
2018-09-08T04:32:33.853Z,100345
2018-09-08T04:33:39.687Z,100339
2018-09-08T04:34:45.114Z,100339
2018-09-08T04:35:50.353Z,100339
2018-09-08T04:36:56.049Z,100332
2018-09-08T04:38:00.998Z,100342
2018-09-08T04:39:06.425Z,100342
2018-09-08T04:40:11.540Z,100351
2018-09-08T04:41:16.424Z,100345
2018-09-08T04:42:21.846Z,100337
2018-09-08T04:43:27.893Z,100354
2018-09-08T04:44:33.048Z,100354
2018-09-08T04:45:38.558Z,100351
2018-09-08T04:46:43.986Z,100357
2018-09-08T04:47:49.420Z,100351
2018-09-08T04:48:54.607Z,100351
2018-09-08T04:49:59.757Z,100357
2018-09-08T04:51:05.188Z,100351
2018-09-08T04:52:10.357Z,100357
2018-09-08T04:53:15.783Z,100351
2018-09-08T04:54:20.970Z,100357
2018-09-08T04:55:26.962Z,100363
2018-09-08T04:56:32.113Z,100354
2018-09-08T04:57:37.217Z,100357
2018-09-08T04:58:42.699Z,100360
2018-09-08T04:59:47.282Z,100360
2018-09-08T05:00:52.774Z,100360
2018-09-08T05:01:58.236Z,100357
2018-09-08T05:03:03.404Z,100363
2018-09-08T05:04:08.567Z,100360
2018-09-08T05:05:13.503Z,100374
2018-09-08T05:06:18.670Z,100363
2018-09-08T05:07:24.454Z,100360
2018-09-08T05:08:29.126Z,100360
2018-09-08T05:09:34.698Z,100368
2018-09-08T05:10:40.149Z,100363
2018-09-08T05:11:45.352Z,100363
2018-09-08T05:12:50.622Z,100371
2018-09-08T05:13:55.491Z,100374
2018-09-08T05:15:00.686Z,100374
2018-09-08T05:16:05.887Z,100357
2018-09-08T05:17:11.590Z,100366
2018-09-08T05:18:17.431Z,100366
2018-09-08T05:19:22.999Z,100360
2018-09-08T05:20:27.927Z,100371
2018-09-08T05:21:33.708Z,100366
2018-09-08T05:22:39.145Z,100363
2018-09-08T05:23:44.004Z,100366
2018-09-08T05:24:48.985Z,100371
2018-09-08T05:25:54.255Z,100368
2018-09-08T05:26:59.188Z,100371
2018-09-08T05:28:04.796Z,100368
2018-09-08T05:29:10.230Z,100374
2018-09-08T05:30:14.838Z,100377
2018-09-08T05:31:20.328Z,100366
2018-09-08T05:32:25.869Z,100371
2018-09-08T05:33:31.497Z,100383
2018-09-08T05:34:36.716Z,100377
2018-09-08T05:35:42.150Z,100380
2018-09-08T05:36:47.651Z,100377
2018-09-08T05:37:53.170Z,100377
2018-09-08T05:38:58.054Z,100371
2018-09-08T05:40:03.742Z,100371
2018-09-08T05:41:08.653Z,100380
2018-09-08T05:42:13.820Z,100377
2018-09-08T05:43:19.440Z,100389
2018-09-08T05:44:24.669Z,100386
2018-09-08T05:45:30.091Z,100386
2018-09-08T05:46:35.249Z,100377
2018-09-08T05:47:40.496Z,100374
2018-09-08T05:48:46.483Z,100392
2018-09-08T05:49:51.220Z,100392
2018-09-08T05:50:56.404Z,100380
2018-09-08T05:52:01.954Z,100383
2018-09-08T05:53:06.859Z,100389
2018-09-08T05:54:12.293Z,100386
2018-09-08T05:55:17.722Z,100389
2018-09-08T05:56:23.212Z,100383
2018-09-08T05:57:29.185Z,100395
2018-09-08T05:58:34.615Z,100389
2018-09-08T05:59:40.219Z,100400
2018-09-08T06:00:45.628Z,100403
2018-09-08T06:01:50.779Z,100395
2018-09-08T06:02:55.924Z,100386
2018-09-08T06:04:01.505Z,100389
2018-09-08T06:05:05.549Z,100398
2018-09-08T06:06:09.873Z,100403
2018-09-08T06:07:15.745Z,100383
2018-09-08T06:08:20.626Z,100406
2018-09-08T06:09:26.764Z,100403
2018-09-08T06:10:32.305Z,100395
2018-09-08T06:11:37.517Z,100389
2018-09-08T06:12:43.019Z,100409
2018-09-08T06:13:48.538Z,100403
2018-09-08T06:14:53.683Z,100409
2018-09-08T06:15:59.497Z,100403
2018-09-08T06:17:04.671Z,100406
2018-09-08T06:18:09.937Z,100403
2018-09-08T06:19:15.542Z,100406
2018-09-08T06:20:20.731Z,100406
2018-09-08T06:21:41.633Z,100406
2018-09-08T06:22:46.791Z,100406
2018-09-08T06:23:52.222Z,100409
2018-09-08T06:24:57.718Z,100400
2018-09-08T06:26:02.934Z,100412
2018-09-08T06:27:07.803Z,100424
2018-09-08T06:28:13.931Z,100418
2018-09-08T06:29:19.466Z,100412
2018-09-08T06:30:24.364Z,100418
2018-09-08T06:31:44.737Z,100415
2018-09-08T06:32:50.331Z,100412
2018-09-08T06:33:55.859Z,100421
2018-09-08T06:35:01.410Z,100412
2018-09-08T06:36:06.963Z,100421
2018-09-08T06:37:12.371Z,100421
2018-09-08T06:38:17.231Z,100424
2018-09-08T06:39:21.876Z,100424
2018-09-08T06:40:28.091Z,100412
2018-09-08T06:41:33.578Z,100421
2018-09-08T06:42:39.267Z,100412
2018-09-08T06:43:43.876Z,100424
2018-09-08T06:44:49.255Z,100418
2018-09-08T06:45:54.644Z,100424
2018-09-08T06:46:59.837Z,100412
2018-09-08T06:48:04.990Z,100432
2018-09-08T06:49:10.555Z,100430
2018-09-08T06:50:15.762Z,100427
2018-09-08T06:51:20.912Z,100421
2018-09-08T06:52:26.491Z,100421
2018-09-08T06:53:31.966Z,100427
2018-09-08T06:54:37.764Z,100430
2018-09-08T06:55:42.635Z,100432
2018-09-08T06:56:47.585Z,100421
2018-09-08T06:57:53.179Z,100430
2018-09-08T06:58:58.638Z,100427
2018-09-08T07:00:03.268Z,100430
2018-09-08T07:01:07.857Z,100427
2018-09-08T07:02:13.287Z,100427
2018-09-08T07:03:18.354Z,100432
2018-09-08T07:04:23.389Z,100424
2018-09-08T07:05:28.535Z,100435
2018-09-08T07:06:34.038Z,100427
2018-09-08T07:07:39.497Z,100435
2018-09-08T07:08:44.923Z,100430
2018-09-08T07:09:50.551Z,100424
2018-09-08T07:10:56.084Z,100435
2018-09-08T07:12:00.955Z,100438
2018-09-08T07:13:06.660Z,100438
2018-09-08T07:14:11.666Z,100421
2018-09-08T07:15:16.939Z,100438
2018-09-08T07:16:23.012Z,100435
2018-09-08T07:17:28.248Z,100432
2018-09-08T07:18:33.731Z,100430
2018-09-08T07:19:38.899Z,100430
2018-09-08T07:20:43.841Z,100441
2018-09-08T07:21:49.174Z,100435
2018-09-08T07:22:54.114Z,100433
2018-09-08T07:23:59.344Z,100438
2018-09-08T07:25:05.262Z,100433
2018-09-08T07:26:10.433Z,100433
2018-09-08T07:27:15.395Z,100433
2018-09-08T07:28:20.337Z,100427
2018-09-08T07:29:25.605Z,100438
2018-09-08T07:30:30.887Z,100441
2018-09-08T07:31:36.038Z,100433
2018-09-08T07:32:41.003Z,100433
2018-09-08T07:33:46.037Z,100438
2018-09-08T07:34:51.243Z,100438
2018-09-08T07:35:56.382Z,100433
2018-09-08T07:37:02.086Z,100441
2018-09-08T07:38:07.235Z,100427
2018-09-08T07:39:11.851Z,100427
2018-09-08T07:40:17.597Z,100430
2018-09-08T07:41:23.031Z,100435
2018-09-08T07:42:28.364Z,100430
2018-09-08T07:43:33.529Z,100433
2018-09-08T07:44:38.409Z,100430
2018-09-08T07:45:44.088Z,100433
2018-09-08T07:46:49.278Z,100433
2018-09-08T07:47:54.709Z,100433
2018-09-08T07:49:00.232Z,100435
2018-09-08T07:50:05.701Z,100433
2018-09-08T07:51:10.577Z,100427
2018-09-08T07:52:16.095Z,100430
2018-09-08T07:53:20.969Z,100421
2018-09-08T07:54:26.951Z,100430
2018-09-08T07:55:32.124Z,100433
2018-09-08T07:56:37.264Z,100435
2018-09-08T07:57:43.008Z,100435
2018-09-08T07:58:48.478Z,100441
2018-09-08T07:59:53.955Z,100438
2018-09-08T08:00:59.347Z,100433
2018-09-08T08:02:04.494Z,100444
2018-09-08T08:03:09.676Z,100444
2018-09-08T08:04:15.215Z,100438
2018-09-08T08:05:20.368Z,100438
2018-09-08T08:06:40.783Z,100444
2018-09-08T08:07:46.137Z,100444
2018-09-08T08:08:51.287Z,100444
2018-09-08T08:09:56.401Z,100444
2018-09-08T08:11:01.610Z,100444
2018-09-08T08:12:07.038Z,100441
2018-09-08T08:13:12.533Z,100453
2018-09-08T08:14:17.713Z,100450
2018-09-08T08:15:22.932Z,100447
2018-09-08T08:16:28.329Z,100438
2018-09-08T08:17:33.806Z,100444
2018-09-08T08:18:39.228Z,100436
2018-09-08T08:19:44.138Z,100456
2018-09-08T08:20:49.333Z,100450
2018-09-08T08:21:55.473Z,100444
2018-09-08T08:23:00.129Z,100441
2018-09-08T08:24:05.003Z,100447
2018-09-08T08:25:11.135Z,100456
2018-09-08T08:26:16.106Z,100444
2018-09-08T08:27:21.253Z,100453
2018-09-08T08:28:41.410Z,100450
2018-09-08T08:29:46.014Z,100447
2018-09-08T08:30:51.466Z,100447
2018-09-08T08:31:56.393Z,100444
2018-09-08T08:33:01.546Z,100444
2018-09-08T08:34:06.385Z,100447
2018-09-08T08:35:11.246Z,100453
2018-09-08T08:36:16.457Z,100450
2018-09-08T08:37:22.343Z,100450
2018-09-08T08:38:27.591Z,100450
2018-09-08T08:39:32.998Z,100444
2018-09-08T08:40:38.436Z,100450
2018-09-08T08:41:43.630Z,100447
2018-09-08T08:42:49.047Z,100447
2018-09-08T08:43:54.474Z,100447
2018-09-08T08:44:59.354Z,100450
2018-09-08T08:46:04.509Z,100444
2018-09-08T08:47:09.670Z,100450
2018-09-08T08:48:14.819Z,100450
2018-09-08T08:49:20.244Z,100453
2018-09-08T08:50:25.149Z,100441
2018-09-08T08:51:30.709Z,100450
2018-09-08T08:52:36.338Z,100450
2018-09-08T08:53:41.310Z,100453
2018-09-08T08:54:47.008Z,100459
2018-09-08T08:55:52.461Z,100447
2018-09-08T08:56:57.715Z,100453
2018-09-08T08:58:03.662Z,100456
2018-09-08T08:59:08.664Z,100456
2018-09-08T09:00:14.130Z,100459
2018-09-08T09:01:19.683Z,100456
2018-09-08T09:02:24.839Z,100462
2018-09-08T09:03:30.192Z,100465
2018-09-08T09:04:35.109Z,100465
2018-09-08T09:05:39.979Z,100456
2018-09-08T09:06:45.136Z,100462
2018-09-08T09:07:50.000Z,100465
2018-09-08T09:08:55.503Z,100459
2018-09-08T09:10:00.761Z,100462
2018-09-08T09:11:05.634Z,100456
2018-09-08T09:12:10.582Z,100462
2018-09-08T09:13:16.378Z,100465
2018-09-08T09:14:22.079Z,100459
2018-09-08T09:15:42.220Z,100462
2018-09-08T09:16:47.570Z,100459
2018-09-08T09:17:53.076Z,100462
2018-09-08T09:18:59.365Z,100453
2018-09-08T09:20:06.027Z,100453
2018-09-08T09:21:10.968Z,100456
2018-09-08T09:22:16.196Z,100453
2018-09-08T09:23:21.299Z,100462
2018-09-08T09:24:29.239Z,100465
2018-09-08T09:25:34.928Z,100462
2018-09-08T09:26:40.384Z,100459
2018-09-08T09:27:45.967Z,100447
2018-09-08T09:28:51.418Z,100456
2018-09-08T09:29:56.325Z,100456
2018-09-08T09:31:02.140Z,100453
2018-09-08T09:32:07.328Z,100450
2018-09-08T09:33:12.593Z,100459
2018-09-08T09:34:17.714Z,100471
2018-09-08T09:35:23.150Z,100453
2018-09-08T09:36:28.467Z,100450
2018-09-08T09:37:33.965Z,100456
2018-09-08T09:38:39.421Z,100468
2018-09-08T09:39:44.981Z,100459
2018-09-08T09:40:50.126Z,100459
2018-09-08T09:41:55.343Z,100456
2018-09-08T09:43:00.951Z,100450
2018-09-08T09:44:05.921Z,100453
2018-09-08T09:45:10.928Z,100465
2018-09-08T09:46:16.774Z,100471
2018-09-08T09:47:21.676Z,100468
2018-09-08T09:48:27.524Z,100468
2018-09-08T09:49:33.273Z,100459
2018-09-08T09:50:38.702Z,100459
2018-09-08T09:51:44.154Z,100450
2018-09-08T09:52:49.640Z,100453
2018-09-08T09:53:55.083Z,100462
2018-09-08T09:55:00.766Z,100453
2018-09-08T09:56:05.385Z,100459
2018-09-08T09:57:09.981Z,100456
2018-09-08T09:58:15.800Z,100462
2018-09-08T09:59:21.079Z,100468
2018-09-08T10:00:41.128Z,100459
2018-09-08T10:01:46.561Z,100459
2018-09-08T10:02:51.486Z,100450
2018-09-08T10:03:57.164Z,100456
2018-09-08T10:05:02.065Z,100462
2018-09-08T10:06:06.996Z,100462
2018-09-08T10:07:12.135Z,100450
2018-09-08T10:08:17.022Z,100462
2018-09-08T10:09:22.170Z,100468
2018-09-08T10:10:28.362Z,100456
2018-09-08T10:11:33.499Z,100450
2018-09-08T10:12:39.351Z,100456
2018-09-08T10:13:44.786Z,100459
2018-09-08T10:14:50.218Z,100453
2018-09-08T10:15:55.649Z,100453
2018-09-08T10:16:59.948Z,100456
2018-09-08T10:18:05.106Z,100462
2018-09-08T10:19:10.823Z,100459
2018-09-08T10:20:16.339Z,100462
2018-09-08T10:21:21.553Z,100456
2018-09-08T10:22:41.754Z,100459
2018-09-08T10:24:05.674Z,100453
2018-09-08T10:25:10.193Z,100450
2018-09-08T10:26:15.502Z,100450
2018-09-08T10:27:20.744Z,100471
2018-09-08T10:28:27.196Z,100456
2018-09-08T10:29:35.300Z,100459
2018-09-08T10:30:40.552Z,100462
2018-09-08T10:31:46.333Z,100462
2018-09-08T10:32:52.257Z,100459
2018-09-08T10:33:58.137Z,100462
2018-09-08T10:35:02.955Z,100462
2018-09-08T10:36:07.610Z,100453
2018-09-08T10:37:13.331Z,100445
2018-09-08T10:38:18.354Z,100456
2018-09-08T10:39:23.265Z,100459
2018-09-08T10:40:28.531Z,100459
2018-09-08T10:41:33.489Z,100468
2018-09-08T10:42:39.047Z,100451
2018-09-08T10:43:44.022Z,100451
2018-09-08T10:44:49.294Z,100462
2018-09-08T10:45:55.185Z,100453
2018-09-08T10:46:59.877Z,100451
2018-09-08T10:48:05.240Z,100456
2018-09-08T10:49:10.226Z,100453
2018-09-08T10:50:15.781Z,100456
2018-09-08T10:51:20.855Z,100465
2018-09-08T10:52:26.707Z,100459
2018-09-08T10:53:31.746Z,100462
2018-09-08T10:54:37.371Z,100462
2018-09-08T10:55:42.374Z,100468
2018-09-08T10:56:47.930Z,100465
2018-09-08T10:57:53.620Z,100471
2018-09-08T10:58:58.905Z,100462
2018-09-08T11:00:03.203Z,100462
2018-09-08T11:01:08.115Z,100465
2018-09-08T11:02:13.976Z,100462
2018-09-08T11:03:21.864Z,100465
2018-09-08T11:04:27.394Z,100471
2018-09-08T11:05:32.143Z,100465
2018-09-08T11:06:37.361Z,100465
2018-09-08T11:07:43.153Z,100465
2018-09-08T11:08:48.429Z,100471
2018-09-08T11:09:54.463Z,100459
2018-09-08T11:10:59.763Z,100462
2018-09-08T11:12:04.718Z,100462
2018-09-08T11:13:09.972Z,100462
2018-09-08T11:14:15.288Z,100462
2018-09-08T11:15:20.579Z,100459
2018-09-08T11:16:26.101Z,100465
2018-09-08T11:17:31.469Z,100468
2018-09-08T11:18:36.956Z,100468
2018-09-08T11:19:42.644Z,100465
2018-09-08T11:20:47.638Z,100471
2018-09-08T11:21:53.160Z,100456
2018-09-08T11:22:58.124Z,100459
2018-09-08T11:24:03.191Z,100462
2018-09-08T11:25:08.540Z,100468
2018-09-08T11:26:14.189Z,100456
2018-09-08T11:27:19.235Z,100459
2018-09-08T11:28:25.114Z,100468
2018-09-08T11:29:30.424Z,100465
2018-09-08T11:30:35.929Z,100465
2018-09-08T11:31:40.727Z,100468
2018-09-08T11:32:46.344Z,100465
2018-09-08T11:33:52.214Z,100462
2018-09-08T11:34:57.767Z,100468
2018-09-08T11:36:02.757Z,100456
2018-09-08T11:37:08.602Z,100456
2018-09-08T11:38:14.232Z,100462
2018-09-08T11:39:19.309Z,100462
2018-09-08T11:40:24.917Z,100465
2018-09-08T11:41:30.479Z,100456
2018-09-08T11:42:35.871Z,100454
2018-09-08T11:43:41.118Z,100456
2018-09-08T11:44:46.143Z,100468
2018-09-08T11:45:52.001Z,100468
2018-09-08T11:46:57.170Z,100459
2018-09-08T11:48:02.444Z,100465
2018-09-08T11:49:07.414Z,100451
2018-09-08T11:50:13.052Z,100462
2018-09-08T11:51:18.022Z,100459
2018-09-08T11:52:23.956Z,100462
2018-09-08T11:53:29.247Z,100459
2018-09-08T11:54:34.631Z,100459
2018-09-08T11:55:40.470Z,100462
2018-09-08T11:56:46.277Z,100459
2018-09-08T11:57:51.998Z,100459
2018-09-08T11:58:57.543Z,100474
2018-09-08T12:00:02.236Z,100468
2018-09-08T12:01:07.567Z,100451
2018-09-08T12:02:12.668Z,100456
2018-09-08T12:03:18.486Z,100459
2018-09-08T12:04:23.613Z,100462
2018-09-08T12:05:29.095Z,100462
2018-09-08T12:06:34.903Z,100457
2018-09-08T12:07:40.169Z,100459
2018-09-08T12:08:45.628Z,100457
2018-09-08T12:09:51.444Z,100459
2018-09-08T12:10:56.876Z,100454
2018-09-08T12:12:02.149Z,100457
2018-09-08T12:13:07.263Z,100457
2018-09-08T12:14:11.861Z,100442
2018-09-08T12:15:17.010Z,100445
2018-09-08T12:16:22.508Z,100439
2018-09-08T12:17:27.973Z,100430
2018-09-08T12:18:32.966Z,100436
2018-09-08T12:19:38.120Z,100416
2018-09-08T12:20:43.608Z,100451
2018-09-08T12:21:49.097Z,100442
2018-09-08T12:22:54.236Z,100433
2018-09-08T12:23:58.828Z,100433
2018-09-08T12:25:04.817Z,100439
2018-09-08T12:26:09.965Z,100439
2018-09-08T12:27:14.948Z,100439
2018-09-08T12:28:20.730Z,100442
2018-09-08T12:29:26.212Z,100439
2018-09-08T12:30:31.842Z,100445
2018-09-08T12:31:37.499Z,100448
2018-09-08T12:32:41.795Z,100442
2018-09-08T12:33:47.260Z,100436
2018-09-08T12:34:52.132Z,100445
2018-09-08T12:35:56.468Z,100445
2018-09-08T12:37:02.048Z,100439
2018-09-08T12:38:06.409Z,100442
2018-09-08T12:39:10.755Z,100445
2018-09-08T12:40:16.257Z,100448
2018-09-08T12:41:21.440Z,100448
2018-09-08T12:42:41.989Z,100431
2018-09-08T12:43:46.853Z,100433
2018-09-08T12:44:52.315Z,100433
2018-09-08T12:45:57.962Z,100436
2018-09-08T12:47:03.484Z,100445
2018-09-08T12:48:08.920Z,100436
2018-09-08T12:49:14.771Z,100439
2018-09-08T12:50:20.502Z,100436
2018-09-08T12:52:45.432Z,100431
2018-09-08T12:53:50.287Z,100431
2018-09-08T12:54:55.285Z,100431
2018-09-08T12:56:00.480Z,100431
2018-09-08T12:57:05.633Z,100428
2018-09-08T12:58:11.036Z,100428
2018-09-08T12:59:16.162Z,100439
2018-09-08T13:00:21.301Z,100445
2018-09-08T13:01:26.732Z,100439
2018-09-08T13:02:31.631Z,100439
2018-09-08T13:03:37.334Z,100448
2018-09-08T13:04:42.509Z,100445
2018-09-08T13:05:48.059Z,100445
2018-09-08T13:06:53.494Z,100442
2018-09-08T13:07:58.374Z,100451
2018-09-08T13:09:03.605Z,100431
2018-09-08T13:10:09.207Z,100448
2018-09-08T13:11:13.900Z,100439
2018-09-08T13:12:19.418Z,100445
2018-09-08T13:13:24.364Z,100434
2018-09-08T13:14:28.943Z,100431
2018-09-08T13:15:34.200Z,100425
2018-09-08T13:16:39.348Z,100428
2018-09-08T13:17:44.646Z,100431
2018-09-08T13:18:49.972Z,100428
2018-09-08T13:19:54.063Z,100422
2018-09-08T13:20:59.248Z,100422
2018-09-08T13:22:05.002Z,100425
2018-09-08T13:23:09.893Z,100428
2018-09-08T13:24:15.324Z,100413
2018-09-08T13:25:21.096Z,100422
2018-09-08T13:26:26.306Z,100416
2018-09-08T13:27:31.643Z,100422
2018-09-08T13:28:36.792Z,100416
2018-09-08T13:29:41.453Z,100413
2018-09-08T13:30:46.849Z,100407
2018-09-08T13:31:52.072Z,100413
2018-09-08T13:32:57.628Z,100407
2018-09-08T13:34:03.306Z,100407
2018-09-08T13:35:07.679Z,100399
2018-09-08T13:36:11.991Z,100404
2018-09-08T13:37:17.456Z,100396
2018-09-08T13:38:22.884Z,100410
2018-09-08T13:39:28.116Z,100413